Time;durP1;ratioP1;P1;durP2;ratioP2;P2;SDS_P1;SDS_P2;PMS_P1;PMS_P2;Temp;Humidity;BMP_temperature;BMP_pressure;BME280_temperature;BME280_humidity;BME280_pressure;Samples;Min_cycle;Max_cycle;Signal;HPM_P1;HPM_P2
2022/09/08 00:00:33;;;;;;;19.67;6.63;;;13.60;99.90;;;;;;4977691;28;20030;-70
2022/09/08 00:03:05;;;;;;;13.52;6.38;;;13.60;99.90;;;;;;4977655;28;20033;-70
2022/09/08 00:05:33;;;;;;;18.65;5.60;;;13.60;99.90;;;;;;4977317;28;20395;-70
2022/09/08 00:07:59;;;;;;;11.13;4.65;;;13.60;99.90;;;;;;4977647;28;20033;-70
2022/09/08 00:10:25;;;;;;;12.55;5.35;;;13.60;99.90;;;;;;4977473;28;20030;-70
2022/09/08 00:12:51;;;;;;;11.15;4.88;;;13.50;99.90;;;;;;4977863;28;20034;-70
2022/09/08 00:15:17;;;;;;;10.75;5.60;;;13.50;99.90;;;;;;4977488;28;20019;-70
2022/09/08 00:17:42;;;;;;;11.00;5.63;;;13.50;99.90;;;;;;4977446;28;20027;-70
2022/09/08 00:20:09;;;;;;;15.05;4.85;;;13.40;99.90;;;;;;4976808;28;20066;-70
2022/09/08 00:22:35;;;;;;;10.63;4.70;;;13.40;99.90;;;;;;4977547;28;20031;-70
2022/09/08 00:25:01;;;;;;;13.05;4.53;;;13.40;99.90;;;;;;4977269;28;20075;-70
2022/09/08 00:27:27;;;;;;;11.05;4.53;;;13.30;99.90;;;;;;4977309;28;20086;-70
2022/09/08 00:29:52;;;;;;;22.33;4.53;;;13.30;99.90;;;;;;4977106;28;20039;-70
2022/09/08 00:32:19;;;;;;;9.27;4.85;;;13.20;99.90;;;;;;4975394;28;20023;-70
2022/09/08 00:34:45;;;;;;;19.73;5.40;;;13.20;99.90;;;;;;4977293;28;20023;-70
2022/09/08 00:37:10;;;;;;;13.30;5.13;;;13.10;99.90;;;;;;4977387;28;20049;-70
2022/09/08 00:39:36;;;;;;;13.20;5.32;;;13.00;99.90;;;;;;4974934;28;20474;-70
2022/09/08 00:42:01;;;;;;;18.73;6.15;;;13.10;99.90;;;;;;4976879;28;20069;-70
2022/09/08 00:44:49;;;;;;;11.63;4.75;;;13.10;99.90;;;;;;4976890;28;20022;-70
2022/09/08 00:47:36;;;;;;;12.77;5.15;;;13.10;99.90;;;;;;4972756;28;20066;-70
2022/09/08 00:50:15;;;;;;;21.00;6.30;;;13.20;99.90;;;;;;4976856;28;20022;-70
2022/09/08 00:53:03;;;;;;;15.88;5.35;;;13.20;99.90;;;;;;4976101;28;20027;-70
2022/09/08 00:55:31;;;;;;;13.70;5.55;;;13.20;99.90;;;;;;4975952;28;20031;-70
2022/09/08 00:57:57;;;;;;;15.45;5.35;;;13.20;99.90;;;;;;4976619;28;20078;-70
2022/09/08 01:00:23;;;;;;;13.75;5.35;;;13.20;99.90;;;;;;4975988;28;20026;-70
2022/09/08 01:02:49;;;;;;;15.98;4.75;;;13.20;99.90;;;;;;4976561;28;20061;-70
2022/09/08 01:05:18;;;;;;;12.50;5.20;;;13.20;99.90;;;;;;4976562;28;20034;-70
2022/09/08 01:13:29;;;;;;;11.07;5.38;;;13.30;99.90;;;;;;4976513;28;20085;-70
2022/09/08 01:15:55;;;;;;;12.75;5.35;;;13.30;99.90;;;;;;4976555;28;20025;-70
2022/09/08 01:18:22;;;;;;;11.90;5.28;;;13.20;99.90;;;;;;4976303;28;20034;-70
2022/09/08 01:20:59;;;;;;;12.40;5.95;;;13.30;99.90;;;;;;4975672;28;20037;-70
2022/09/08 01:23:48;;;;;;;19.45;5.70;;;13.30;99.90;;;;;;4976473;28;20030;-70
2022/09/08 01:26:25;;;;;;;19.65;5.60;;;13.30;99.90;;;;;;4976226;28;20109;-70
2022/09/08 01:28:58;;;;;;;20.85;5.35;;;13.30;99.90;;;;;;4976246;28;20093;-70
2022/09/08 01:31:24;;;;;;;21.75;6.00;;;13.30;99.90;;;;;;4975547;28;20027;-70
2022/09/08 01:33:51;;;;;;;17.55;5.97;;;13.30;99.90;;;;;;4976196;28;20476;-70
2022/09/08 01:36:18;;;;;;;20.67;5.80;;;13.30;99.90;;;;;;4963508;28;20035;-70
2022/09/08 01:38:44;;;;;;;16.92;6.63;;;13.20;99.90;;;;;;4956480;28;20090;-70
2022/09/08 01:41:10;;;;;;;12.20;5.82;;;13.20;99.90;;;;;;4956126;28;20468;-70
2022/09/08 01:43:35;;;;;;;19.23;7.47;;;13.20;99.90;;;;;;4956844;28;20027;-70
2022/09/08 01:46:01;;;;;;;16.58;6.68;;;13.20;99.90;;;;;;4956768;28;20027;-70
2022/09/08 01:48:27;;;;;;;17.25;6.65;;;13.20;99.90;;;;;;4957649;28;20019;-70
2022/09/08 01:50:58;;;;;;;16.92;6.55;;;13.30;99.90;;;;;;4956296;28;20043;-70
2022/09/08 01:53:23;;;;;;;21.05;7.15;;;13.20;99.90;;;;;;4972676;28;20023;-70
2022/09/08 01:55:49;;;;;;;17.33;6.68;;;13.30;99.90;;;;;;4975633;28;20030;-70
2022/09/08 01:58:14;;;;;;;17.27;7.72;;;13.30;99.90;;;;;;4976108;28;20046;-70
2022/09/08 02:00:41;;;;;;;14.13;7.15;;;13.30;99.90;;;;;;4975107;28;20048;-70
2022/09/08 02:03:07;;;;;;;14.82;7.43;;;13.30;99.90;;;;;;4975464;28;20030;-70
2022/09/08 02:05:36;;;;;;;13.60;6.70;;;13.30;99.90;;;;;;4975815;28;20050;-70
2022/09/08 02:08:01;;;;;;;25.27;8.50;;;13.30;99.90;;;;;;4975326;28;20022;-70
2022/09/08 02:10:28;;;;;;;17.80;7.63;;;13.40;99.90;;;;;;4975518;28;20569;-68
2022/09/08 02:12:53;;;;;;;18.42;7.10;;;13.30;99.90;;;;;;4975599;28;20051;-67
2022/09/08 02:15:19;;;;;;;21.67;7.88;;;13.30;99.90;;;;;;4974808;28;20070;-67
2022/09/08 02:17:45;;;;;;;21.98;8.18;;;13.30;99.90;;;;;;4975036;28;20069;-68
2022/09/08 02:20:10;;;;;;;29.13;6.68;;;13.30;99.90;;;;;;4975132;28;20387;-67
2022/09/08 02:22:36;;;;;;;21.95;7.10;;;13.20;99.90;;;;;;4975048;28;20081;-67
2022/09/08 02:25:01;;;;;;;25.83;7.78;;;13.20;99.90;;;;;;4975393;28;20027;-67
2022/09/08 02:27:27;;;;;;;13.70;6.05;;;13.20;99.90;;;;;;4974692;28;20434;-68
2022/09/08 02:29:53;;;;;;;18.23;7.95;;;13.20;99.90;;;;;;4974870;28;20077;-67
2022/09/08 02:32:19;;;;;;;18.20;7.38;;;13.20;99.90;;;;;;4975087;28;20027;-67
2022/09/08 02:34:44;;;;;;;17.60;7.50;;;13.20;99.90;;;;;;4975258;28;20030;-67
2022/09/08 02:37:10;;;;;;;25.33;8.18;;;13.20;99.90;;;;;;4975053;28;20387;-68
2022/09/08 02:39:35;;;;;;;17.08;7.70;;;13.20;99.90;;;;;;4974530;28;20019;-67
2022/09/08 02:42:01;;;;;;;17.13;7.70;;;13.20;99.90;;;;;;4974944;28;20035;-68
2022/09/08 02:44:27;;;;;;;15.80;7.65;;;13.10;99.90;;;;;;4975118;28;20483;-68
2022/09/08 02:46:52;;;;;;;15.82;6.72;;;13.20;99.90;;;;;;4974852;28;20109;-68
2022/09/08 02:49:18;;;;;;;18.70;7.70;;;13.10;99.90;;;;;;4974173;28;20392;-68
2022/09/08 02:51:43;;;;;;;25.73;7.88;;;13.10;99.90;;;;;;4975011;28;20030;-68
2022/09/08 02:54:09;;;;;;;18.50;7.72;;;13.10;99.90;;;;;;4975322;28;20023;-68
2022/09/08 02:56:35;;;;;;;19.50;7.47;;;13.10;99.90;;;;;;4975516;28;20085;-68
2022/09/08 02:59:00;;;;;;;18.20;7.43;;;13.10;99.90;;;;;;4974162;28;20073;-68
2022/09/08 03:01:26;;;;;;;13.32;5.90;;;13.10;99.90;;;;;;4974942;28;20037;-68
2022/09/08 03:03:51;;;;;;;12.02;6.05;;;13.00;99.90;;;;;;4974612;28;20031;-68
2022/09/08 03:06:18;;;;;;;9.27;4.65;;;13.00;99.90;;;;;;4974839;28;20037;-68
2022/09/08 03:08:43;;;;;;;15.68;6.55;;;12.90;99.90;;;;;;4974266;28;20030;-68
2022/09/08 03:11:09;;;;;;;17.63;5.95;;;12.90;99.90;;;;;;4974226;28;20027;-68
2022/09/08 03:13:35;;;;;;;8.00;5.35;;;12.80;99.90;;;;;;4973371;28;20023;-68
2022/09/08 03:16:02;;;;;;;15.13;5.60;;;12.80;99.90;;;;;;4974589;28;20093;-68
2022/09/08 03:18:28;;;;;;;18.88;6.05;;;12.80;99.90;;;;;;4975109;28;20015;-68
2022/09/08 03:21:20;;;;;;;15.90;5.85;;;12.70;99.90;;;;;;4978119;28;20050;-68
2022/09/08 03:23:46;;;;;;;11.70;5.40;;;12.70;99.90;;;;;;4974386;28;20097;-68
2022/09/08 03:26:20;;;;;;;12.27;6.30;;;12.70;99.90;;;;;;4978319;28;20419;-68
2022/09/08 03:28:46;;;;;;;15.55;6.13;;;12.70;99.90;;;;;;4978632;28;20419;-68
2022/09/08 03:31:17;;;;;;;13.80;6.00;;;12.70;99.90;;;;;;4977753;28;20034;-68
2022/09/08 03:33:44;;;;;;;13.85;5.75;;;12.70;99.90;;;;;;4978207;28;20038;-68
2022/09/08 03:36:11;;;;;;;8.23;4.97;;;12.80;99.90;;;;;;4978142;28;20026;-68
2022/09/08 03:38:37;;;;;;;14.13;5.70;;;12.80;99.90;;;;;;4978465;28;20031;-68
2022/09/08 03:41:07;;;;;;;13.20;5.78;;;12.80;99.90;;;;;;4977476;28;20550;-68
2022/09/08 03:43:33;;;;;;;17.20;5.28;;;12.80;99.90;;;;;;4978005;28;20030;-68
2022/09/08 03:45:59;;;;;;;13.73;5.03;;;12.80;99.90;;;;;;4977927;28;20023;-68
2022/09/08 03:48:24;;;;;;;9.82;5.35;;;12.80;99.90;;;;;;4977566;28;20078;-68
2022/09/08 03:50:51;;;;;;;10.88;5.30;;;12.80;99.90;;;;;;4976786;28;20033;-68
2022/09/08 03:53:17;;;;;;;19.77;7.80;;;12.70;99.90;;;;;;4977886;28;20034;-68
2022/09/08 03:55:42;;;;;;;20.60;7.68;;;12.70;99.90;;;;;;4977803;28;20551;-67
2022/09/08 03:58:08;;;;;;;18.10;8.60;;;12.80;99.90;;;;;;4977960;28;20105;-67
2022/09/08 04:00:35;;;;;;;22.27;8.48;;;12.80;99.90;;;;;;4977214;28;20386;-68
2022/09/08 04:03:00;;;;;;;14.07;6.85;;;12.80;99.90;;;;;;4977767;28;20497;-68
2022/09/08 04:05:26;;;;;;;17.55;7.30;;;12.80;99.90;;;;;;4977614;28;20027;-67
2022/09/08 04:07:51;;;;;;;20.33;7.38;;;12.80;99.90;;;;;;4977282;28;20062;-68
2022/09/08 04:10:19;;;;;;;18.90;7.78;;;12.80;99.90;;;;;;4976091;28;20046;-68
2022/09/08 04:12:45;;;;;;;15.05;7.47;;;12.80;99.90;;;;;;4974384;28;20538;-68
2022/09/08 04:15:11;;;;;;;11.45;6.40;;;12.80;99.90;;;;;;4973062;28;20061;-68
2022/09/08 04:17:36;;;;;;;19.70;7.03;;;12.80;99.90;;;;;;4977286;28;20058;-69
2022/09/08 04:20:03;;;;;;;16.90;6.75;;;12.80;99.90;;;;;;4977474;28;20057;-68
2022/09/08 04:22:28;;;;;;;10.05;6.05;;;12.70;99.90;;;;;;4975365;28;20019;-68
2022/09/08 04:24:54;;;;;;;14.90;6.28;;;12.70;99.90;;;;;;4977435;28;20033;-68
2022/09/08 04:27:21;;;;;;;12.95;6.45;;;12.70;99.90;;;;;;4977469;28;20093;-68
2022/09/08 04:29:47;;;;;;;15.98;6.32;;;12.60;99.90;;;;;;4977105;28;20025;-68
2022/09/08 04:32:13;;;;;;;11.63;6.35;;;12.60;99.90;;;;;;4976339;28;20023;-68
2022/09/08 04:34:38;;;;;;;13.68;5.93;;;12.60;99.90;;;;;;4977291;28;20474;-69
2022/09/08 04:37:05;;;;;;;21.98;6.78;;;12.60;99.90;;;;;;4977177;28;20491;-67
2022/09/08 04:39:31;;;;;;;13.63;7.07;;;12.60;99.90;;;;;;4966884;28;20063;-68
2022/09/08 04:41:57;;;;;;;25.45;6.88;;;12.70;99.90;;;;;;4957925;28;20039;-68
2022/09/08 04:44:22;;;;;;;23.73;6.10;;;12.70;99.90;;;;;;4957105;28;20082;-69
2022/09/08 04:46:48;;;;;;;17.55;5.80;;;12.70;99.90;;;;;;4972923;28;20030;-68
2022/09/08 04:49:13;;;;;;;23.10;7.18;;;12.70;99.90;;;;;;4976940;28;20027;-68
2022/09/08 04:51:40;;;;;;;19.17;6.55;;;12.80;99.90;;;;;;4977280;28;20034;-68
2022/09/08 04:54:05;;;;;;;21.85;6.80;;;12.80;99.90;;;;;;4977232;28;20526;-68
2022/09/08 04:56:32;;;;;;;22.83;7.00;;;12.80;99.90;;;;;;4976248;28;20031;-67
2022/09/08 04:59:00;;;;;;;14.43;5.72;;;12.80;99.90;;;;;;4976712;28;20030;-68
2022/09/08 05:01:29;;;;;;;10.18;5.03;;;12.80;99.90;;;;;;4966902;28;20106;-67
2022/09/08 05:03:59;;;;;;;9.88;4.72;;;12.80;99.90;;;;;;4957594;28;20092;-67
2022/09/08 05:06:25;;;;;;;11.85;5.72;;;12.90;99.90;;;;;;4963089;28;20019;-68
2022/09/08 05:08:54;;;;;;;18.25;6.20;;;12.90;99.90;;;;;;4975554;28;20040;-68
2022/09/08 05:11:20;;;;;;;16.20;5.57;;;12.90;99.90;;;;;;4976721;28;20042;-68
2022/09/08 05:13:46;;;;;;;22.92;6.10;;;13.00;99.90;;;;;;4976857;28;20023;-68
2022/09/08 05:16:14;;;;;;;21.00;7.13;;;13.00;99.90;;;;;;4976266;28;20045;-68
2022/09/08 05:18:41;;;;;;;21.65;6.90;;;13.10;99.90;;;;;;4976235;28;20030;-68
2022/09/08 05:21:07;;;;;;;19.75;6.35;;;13.20;99.90;;;;;;4975782;28;20030;-68
2022/09/08 05:23:33;;;;;;;21.67;6.88;;;13.20;99.90;;;;;;4976124;28;20022;-68
2022/09/08 05:26:01;;;;;;;21.13;7.20;;;13.30;99.90;;;;;;4976390;28;20098;-68
2022/09/08 05:28:29;;;;;;;18.92;6.65;;;13.40;99.90;;;;;;4976029;28;20029;-68
2022/09/08 05:30:55;;;;;;;24.50;7.50;;;13.50;99.90;;;;;;4975376;28;20038;-68
2022/09/08 05:33:21;;;;;;;19.15;7.15;;;13.60;99.90;;;;;;4976024;28;20054;-68
2022/09/08 05:35:47;;;;;;;22.55;7.63;;;13.50;99.90;;;;;;4975993;28;20030;-68
2022/09/08 05:38:13;;;;;;;23.73;7.22;;;13.60;99.90;;;;;;4975795;28;20023;-68
2022/09/08 05:40:39;;;;;;;19.25;7.75;;;13.70;99.90;;;;;;4975198;28;20110;-68
2022/09/08 05:43:04;;;;;;;29.00;8.75;;;13.80;99.90;;;;;;4975649;28;20471;-68
2022/09/08 05:45:30;;;;;;;20.73;7.75;;;13.90;99.90;;;;;;4975801;28;20110;-68
2022/09/08 05:47:56;;;;;;;23.05;8.45;;;13.90;99.90;;;;;;4975819;28;20038;-67
2022/09/08 05:50:21;;;;;;;26.95;8.32;;;14.00;99.90;;;;;;4975633;28;20027;-68
2022/09/08 05:52:47;;;;;;;22.83;7.68;;;14.00;99.90;;;;;;4975075;28;20102;-68
2022/09/08 05:55:14;;;;;;;16.42;6.65;;;14.00;99.90;;;;;;4975528;28;20094;-68
2022/09/08 05:57:40;;;;;;;16.85;6.95;;;14.10;99.90;;;;;;4975594;28;20025;-68
2022/09/08 06:00:09;;;;;;;13.50;6.72;;;14.10;99.90;;;;;;4975450;28;20066;-68
2022/09/08 06:02:34;;;;;;;23.65;7.13;;;14.20;99.90;;;;;;4975466;28;20039;-68
2022/09/08 06:05:00;;;;;;;18.08;6.45;;;14.20;99.90;;;;;;4975400;28;20057;-68
2022/09/08 06:07:26;;;;;;;12.48;6.10;;;14.30;99.90;;;;;;4974859;28;20499;-68
2022/09/08 06:09:52;;;;;;;12.85;7.28;;;14.30;99.90;;;;;;4974971;28;20027;-68
2022/09/08 06:12:18;;;;;;;11.90;6.00;;;14.30;99.90;;;;;;4974004;28;20110;-68
2022/09/08 06:14:44;;;;;;;18.95;6.25;;;14.40;99.90;;;;;;4975334;28;20023;-68
2022/09/08 06:17:10;;;;;;;21.00;6.93;;;14.50;99.90;;;;;;4975335;28;20033;-68
2022/09/08 06:19:37;;;;;;;15.40;6.63;;;14.50;99.90;;;;;;4975302;28;20057;-68
2022/09/08 06:22:03;;;;;;;14.40;5.55;;;14.60;99.90;;;;;;4974599;28;20438;-68
2022/09/08 06:24:28;;;;;;;10.27;5.13;;;14.70;99.90;;;;;;4975114;28;20483;-68
2022/09/08 06:27:12;;;;;;;11.80;5.75;;;14.80;99.90;;;;;;4974939;28;20018;-67
2022/09/08 06:30:11;;;;;;;25.30;6.57;;;14.80;99.90;;;;;;4975199;28;20026;-68
2022/09/08 06:32:57;;;;;;;17.38;6.55;;;14.90;99.90;;;;;;4974732;28;20023;-68
2022/09/08 06:35:34;;;;;;;9.65;4.95;;;15.10;99.90;;;;;;4975247;28;20030;-67
2022/09/08 06:38:01;;;;;;;10.75;5.22;;;15.40;99.90;;;;;;4975287;28;20418;-67
2022/09/08 06:40:43;;;;;;;10.52;5.03;;;15.70;99.90;;;;;;4974815;28;20061;-67
2022/09/08 06:43:21;;;;;;;8.77;4.35;;;15.90;99.90;;;;;;4975172;28;20379;-67
2022/09/08 06:45:50;;;;;;;15.85;4.00;;;16.10;99.90;;;;;;4975161;28;20031;-68
2022/09/08 06:48:15;;;;;;;20.95;4.60;;;16.30;99.90;;;;;;4974248;28;20459;-68
2022/09/08 06:50:51;;;;;;;7.32;3.90;;;16.60;99.90;;;;;;4974628;28;20037;-68
2022/09/08 06:53:24;;;;;;;12.68;3.88;;;16.80;99.90;;;;;;4974326;28;20137;-68
2022/09/08 06:56:20;;;;;;;14.98;4.07;;;17.20;99.90;;;;;;4974858;28;20105;-68
2022/09/08 06:58:46;;;;;;;8.43;3.42;;;17.40;99.90;;;;;;4974704;28;20022;-68
2022/09/08 07:01:34;;;;;;;23.88;3.90;;;17.60;99.90;;;;;;4974382;28;20395;-68
2022/09/08 07:04:12;;;;;;;7.57;3.55;;;17.80;99.90;;;;;;4975135;28;20027;-68
2022/09/08 07:06:54;;;;;;;10.60;3.28;;;18.00;99.90;;;;;;4974726;28;20522;-68
2022/09/08 07:09:43;;;;;;;9.70;3.70;;;18.10;99.90;;;;;;4974634;28;20130;-68
2022/09/08 07:12:29;;;;;;;12.50;4.03;;;18.20;99.90;;;;;;4974992;28;20468;-68
2022/09/08 07:15:18;;;;;;;12.05;3.40;;;18.20;99.90;;;;;;4974482;28;20419;-68
2022/09/08 07:17:53;;;;;;;11.25;3.80;;;18.40;99.90;;;;;;4974789;28;20030;-68
2022/09/08 07:20:20;;;;;;;10.43;3.72;;;18.40;99.90;;;;;;4974584;28;20063;-68
2022/09/08 07:22:53;;;;;;;7.80;3.78;;;18.40;99.90;;;;;;4975115;28;20368;-68
2022/09/08 07:25:27;;;;;;;;;;;18.20;99.90;;;;;;4974391;28;20088;-68
2022/09/08 07:28:01;;;;;;;13.13;3.17;;;18.10;99.90;;;;;;4974802;28;19957;-68
2022/09/08 07:30:27;;;;;;;7.28;3.20;;;18.10;99.90;;;;;;4974502;28;20042;-68
2022/09/08 07:33:08;;;;;;;11.88;3.60;;;18.10;99.90;;;;;;4974396;28;20073;-68
2022/09/08 07:35:45;;;;;;;11.05;3.45;;;18.10;99.90;;;;;;4974721;28;20379;-68
2022/09/08 07:38:18;;;;;;;16.58;4.18;;;18.10;99.90;;;;;;4974537;28;20420;-68
2022/09/08 07:40:48;;;;;;;10.32;3.45;;;18.00;99.90;;;;;;4973790;28;20027;-68
2022/09/08 07:43:15;;;;;;;15.73;4.30;;;18.00;99.90;;;;;;4974785;28;20027;-68
2022/09/08 07:45:57;;;;;;;18.05;3.60;;;18.00;99.90;;;;;;4974314;28;20035;-68
2022/09/08 07:49:01;;;;;;;19.05;4.40;;;17.90;99.90;;;;;;4973946;28;20034;-68
2022/09/08 07:51:36;;;;;;;16.88;3.67;;;17.90;99.90;;;;;;4895757;29;20043;-68
2022/09/08 07:54:18;;;;;;;12.65;3.88;;;18.00;99.90;;;;;;4895923;29;20080;-68
2022/09/08 07:57:09;;;;;;;15.23;3.50;;;17.90;99.90;;;;;;4946085;28;20378;-68
2022/09/08 07:59:42;;;;;;;13.82;4.55;;;17.90;99.90;;;;;;4934194;28;20419;-69
2022/09/08 08:02:08;;;;;;;;;;;18.00;99.90;;;;;;4974863;28;20065;-68
2022/09/08 08:04:47;;;;;;;15.98;4.15;;;18.00;99.90;;;;;;4974397;28;19910;-68
2022/09/08 08:07:27;;;;;;;8.57;3.90;;;18.10;99.90;;;;;;4977738;28;20114;-69
2022/09/08 08:10:09;;;;;;;16.40;3.50;;;18.20;99.90;;;;;;4977827;28;20119;-68
2022/09/08 08:13:05;;;;;;;18.10;3.53;;;18.30;99.90;;;;;;4977387;28;20484;-69
2022/09/08 08:15:46;;;;;;;13.15;4.10;;;18.40;99.90;;;;;;4977473;28;20486;-69
2022/09/08 08:18:30;;;;;;;19.42;4.38;;;18.50;99.90;;;;;;4977548;28;20019;-69
2022/09/08 08:21:10;;;;;;;20.40;4.00;;;18.50;99.90;;;;;;4977197;28;20047;-69
2022/09/08 08:23:54;;;;;;;12.52;3.47;;;18.50;99.90;;;;;;4977013;28;20034;-69
2022/09/08 08:26:58;;;;;;;19.83;3.42;;;18.60;99.90;;;;;;4976697;28;20460;-69
2022/09/08 08:30:00;;;;;;;16.02;4.13;;;18.60;99.90;;;;;;4964989;28;20031;-69
2022/09/08 08:32:36;;;;;;;19.98;4.07;;;18.50;99.90;;;;;;4976783;28;20019;-69
2022/09/08 08:35:12;;;;;;;12.40;3.60;;;18.50;99.90;;;;;;4977257;28;20518;-70
2022/09/08 08:37:40;;;;;;;12.70;3.40;;;18.60;99.90;;;;;;4976740;28;20127;-69
2022/09/08 08:40:36;;;;;;;14.23;3.60;;;18.50;99.90;;;;;;4976815;28;20117;-69
2022/09/08 08:43:07;;;;;;;13.20;3.83;;;18.50;99.90;;;;;;4976876;28;20558;-69
2022/09/08 08:46:03;;;;;;;11.32;3.83;;;18.50;99.90;;;;;;4977072;28;20041;-69
2022/09/08 08:48:43;;;;;;;9.73;4.10;;;18.40;99.90;;;;;;4976602;28;20033;-70
2022/09/08 08:51:24;;;;;;;9.73;3.58;;;18.50;99.90;;;;;;4977070;28;20023;-69
2022/09/08 08:53:52;;;;;;;10.32;3.78;;;18.60;99.90;;;;;;4977082;28;20023;-69
2022/09/08 08:56:27;;;;;;;13.65;3.20;;;18.60;99.90;;;;;;4976668;28;20023;-69
2022/09/08 08:59:06;;;;;;;18.05;3.70;;;18.70;99.90;;;;;;4976369;28;20514;-69
2022/09/08 09:02:08;;;;;;;9.23;3.80;;;18.80;99.90;;;;;;4976920;28;20039;-69
2022/09/08 09:05:13;;;;;;;11.38;3.10;;;18.70;99.90;;;;;;4976733;28;20026;-69
2022/09/08 09:08:04;;;;;;;17.63;4.82;;;18.70;99.90;;;;;;4977124;28;20031;-69
2022/09/08 09:10:42;;;;;;;7.72;3.35;;;18.70;99.90;;;;;;4976235;28;20038;-69
2022/09/08 09:13:29;;;;;;;10.80;3.30;;;18.80;99.90;;;;;;4976475;28;20038;-70
2022/09/08 09:16:22;;;;;;;8.77;3.08;;;18.90;99.90;;;;;;4976371;28;20542;-69
2022/09/08 09:19:06;;;;;;;21.48;3.53;;;18.80;99.90;;;;;;4976271;28;20027;-69
2022/09/08 09:21:34;;;;;;;20.70;4.43;;;18.80;99.90;;;;;;4976688;28;20083;-69
2022/09/08 09:24:09;;;;;;;10.52;3.58;;;18.80;99.90;;;;;;4975576;28;20357;-69
2022/09/08 09:26:35;;;;;;;11.02;3.25;;;18.70;99.90;;;;;;4976172;28;20105;-69
2022/09/08 09:29:24;;;;;;;17.20;3.95;;;18.70;99.90;;;;;;4975882;28;20043;-69
2022/09/08 09:32:11;;;;;;;10.82;3.72;;;18.80;99.90;;;;;;4975689;28;20019;-69
2022/09/08 09:35:34;;;;;;;16.58;4.00;;;18.70;99.90;;;;;;4976051;28;20415;-69
2022/09/08 09:38:22;;;;;;;14.25;3.67;;;18.60;99.90;;;;;;4897590;29;20076;-69
2022/09/08 09:40:50;;;;;;;14.18;3.58;;;18.50;99.90;;;;;;4863291;29;20041;-69
2022/09/08 09:43:36;;;;;;;14.95;3.63;;;18.50;99.90;;;;;;4946988;28;20386;-69
2022/09/08 09:46:32;;;;;;;10.55;3.63;;;18.60;99.90;;;;;;4976050;28;20102;-69
2022/09/08 09:49:06;;;;;;;10.65;3.45;;;18.70;99.90;;;;;;4975882;28;20027;-69
2022/09/08 09:51:51;;;;;;;12.63;3.90;;;18.70;99.90;;;;;;4976700;28;20027;-69
2022/09/08 09:54:36;;;;;;;10.75;3.58;;;18.60;99.90;;;;;;4975750;28;20106;-69
2022/09/08 09:57:27;;;;;;;10.60;3.80;;;18.60;99.90;;;;;;4976080;28;20029;-69
2022/09/08 10:00:13;;;;;;;12.70;3.72;;;18.70;99.90;;;;;;4975664;28;20026;-69
2022/09/08 10:03:08;;;;;;;17.58;3.63;;;18.80;99.90;;;;;;4975820;28;20019;-70
2022/09/08 10:05:56;;;;;;;13.48;4.25;;;18.80;99.90;;;;;;4974864;28;20026;-69
2022/09/08 10:08:41;;;;;;;12.90;3.53;;;18.70;99.90;;;;;;4974273;28;20491;-69
2022/09/08 10:11:31;;;;;;;10.38;3.53;;;18.70;99.90;;;;;;4975660;28;20039;-69
2022/09/08 10:14:23;;;;;;;15.02;4.47;;;18.80;99.90;;;;;;4975617;28;20029;-68
2022/09/08 10:17:04;;;;;;;11.00;3.53;;;18.80;99.90;;;;;;4975590;28;20407;-69
2022/09/08 10:19:48;;;;;;;14.65;3.38;;;18.90;99.90;;;;;;4974781;28;20090;-69
2022/09/08 10:22:39;;;;;;;11.85;3.55;;;19.10;99.90;;;;;;4975197;28;20383;-69
2022/09/08 10:25:19;;;;;;;9.30;3.33;;;19.10;99.90;;;;;;4975398;28;20019;-69
2022/09/08 10:28:28;;;;;;;9.65;3.35;;;19.10;99.90;;;;;;4974520;28;20023;-69
2022/09/08 10:31:20;;;;;;;15.68;3.47;;;19.00;99.90;;;;;;4974855;28;20483;-69
2022/09/08 10:34:16;;;;;;;27.15;3.63;;;19.00;99.90;;;;;;4975193;28;20027;-68
2022/09/08 10:36:53;;;;;;;9.57;2.75;;;18.70;99.90;;;;;;4957518;28;20046;-69
2022/09/08 10:39:41;;;;;;;13.57;2.92;;;18.70;99.90;;;;;;4965811;28;20030;-69
2022/09/08 10:42:13;;;;;;;14.57;3.70;;;18.70;99.90;;;;;;4966476;28;20030;-69
2022/09/08 10:44:49;;;;;;;11.70;3.00;;;18.70;99.90;;;;;;4967477;28;20391;-69
2022/09/08 10:47:23;;;;;;;11.70;3.47;;;18.70;99.90;;;;;;4968955;28;20034;-68
2022/09/08 10:49:52;;;;;;;9.00;2.83;;;18.70;99.90;;;;;;4968348;28;20057;-69
2022/09/08 10:52:21;;;;;;;10.10;3.30;;;18.80;99.90;;;;;;4971244;28;20547;-69
2022/09/08 10:54:49;;;;;;;14.68;3.53;;;18.90;99.90;;;;;;4964787;28;20023;-69
2022/09/08 10:57:33;;;;;;;10.88;3.13;;;19.00;99.90;;;;;;4965542;28;20498;-69
2022/09/08 11:00:12;;;;;;;11.05;2.50;;;19.00;99.90;;;;;;4964962;28;20031;-68
2022/09/08 11:02:40;;;;;;;41.00;3.90;;;19.10;99.90;;;;;;4970562;28;20027;-69
2022/09/08 11:05:09;;;;;;;13.88;3.28;;;19.20;99.90;;;;;;4974615;28;20507;-68
2022/09/08 11:08:09;;;;;;;16.63;3.53;;;19.30;99.90;;;;;;4972788;28;20500;-69
2022/09/08 11:10:56;;;;;;;11.10;2.85;;;19.20;99.90;;;;;;4974524;28;20081;-69
2022/09/08 11:13:22;;;;;;;12.40;3.15;;;19.20;99.90;;;;;;4974556;28;20036;-68
2022/09/08 11:16:25;;;;;;;9.43;3.38;;;19.20;99.90;;;;;;4973955;28;20031;-69
2022/09/08 11:19:20;;;;;;;8.57;3.05;;;19.10;99.90;;;;;;4972959;28;20033;-69
2022/09/08 11:21:51;;;;;;;10.00;2.97;;;19.00;99.90;;;;;;4974509;28;20019;-69
2022/09/08 11:24:37;;;;;;;15.75;3.50;;;18.90;99.90;;;;;;4974443;28;20046;-69
2022/09/08 11:27:40;;;;;;;7.32;3.50;;;18.60;99.90;;;;;;4974678;28;20034;-68
2022/09/08 11:30:23;;;;;;;15.15;3.33;;;18.60;99.90;;;;;;4973691;28;20558;-69
2022/09/08 11:33:09;;;;;;;15.40;4.80;;;18.40;99.90;;;;;;4974524;28;20039;-69
2022/09/08 11:35:57;;;;;;;13.43;3.58;;;18.30;99.90;;;;;;4974414;28;20022;-68
2022/09/08 11:38:45;;;;;;;14.30;3.63;;;18.20;99.90;;;;;;4974346;28;20065;-68
2022/09/08 11:41:43;;;;;;;13.38;3.78;;;18.00;99.90;;;;;;4976610;28;20031;-68
2022/09/08 11:44:29;;;;;;;14.90;3.50;;;17.80;99.90;;;;;;4978357;28;20471;-68
2022/09/08 11:47:13;;;;;;;19.08;3.92;;;17.70;99.90;;;;;;4978204;28;20049;-69
2022/09/08 11:50:04;;;;;;;17.85;3.90;;;17.50;99.90;;;;;;4977954;28;20031;-68
2022/09/08 11:52:56;;;;;;;13.65;4.18;;;17.30;99.90;;;;;;4977930;28;20138;-68
2022/09/08 11:55:59;;;;;;;14.23;3.50;;;17.00;99.90;;;;;;4978361;28;20023;-68
2022/09/08 11:58:51;;;;;;;15.18;4.55;;;16.70;99.90;;;;;;4977732;28;20027;-68
2022/09/08 12:01:29;;;;;;;9.10;3.88;;;16.50;99.90;;;;;;4977637;28;20460;-68
2022/09/08 12:04:31;;;;;;;10.05;3.63;;;16.30;99.90;;;;;;4977135;28;20340;-68
2022/09/08 12:07:14;;;;;;;13.98;4.07;;;16.00;99.90;;;;;;4967060;28;20086;-68
2022/09/08 12:10:18;;;;;;;;;;;15.80;99.90;;;;;;4977795;28;20089;-68
2022/09/08 12:13:08;;;;;;;13.23;4.78;;;15.60;99.90;;;;;;4918005;29;20299;-68
2022/09/08 12:15:50;;;;;;;14.50;3.95;;;15.50;99.90;;;;;;4917511;29;20111;-68
2022/09/08 12:18:32;;;;;;;31.38;5.53;;;15.40;99.90;;;;;;4962447;28;20049;-68
2022/09/08 12:21:07;;;;;;;22.90;5.32;;;15.20;99.90;;;;;;4976097;28;20037;-68
2022/09/08 12:23:55;;;;;;;17.40;4.90;;;15.10;99.90;;;;;;4977649;28;20053;-69
2022/09/08 12:26:35;;;;;;;13.07;5.22;;;15.00;99.90;;;;;;4977383;28;20031;-67
2022/09/08 12:29:12;;;;;;;15.88;5.38;;;14.90;99.90;;;;;;4977146;28;20030;-67
2022/09/08 12:31:40;;;;;;;13.82;5.75;;;14.80;99.90;;;;;;4977065;28;20538;-68
2022/09/08 12:34:44;;;;;;;19.98;5.32;;;14.80;99.90;;;;;;4976485;28;20031;-68
2022/09/08 12:37:24;;;;;;;22.67;5.82;;;14.60;99.90;;;;;;4977066;28;20019;-69
2022/09/08 12:40:27;;;;;;;18.88;6.43;;;14.50;99.90;;;;;;4976943;28;20056;-69
2022/09/08 12:43:08;;;;;;;18.58;5.68;;;14.40;99.90;;;;;;4976960;28;20026;-69
2022/09/08 12:45:50;;;;;;;16.85;5.43;;;14.30;99.90;;;;;;4976213;28;20513;-68
2022/09/08 12:48:52;;;;;;;14.70;6.03;;;14.20;99.90;;;;;;4977093;28;20034;-68
2022/09/08 12:51:26;;;;;;;16.38;5.95;;;14.10;99.90;;;;;;4975959;28;20058;-69
2022/09/08 12:54:12;;;;;;;18.08;5.93;;;14.00;99.90;;;;;;4976506;28;20037;-68
2022/09/08 12:57:23;;;;;;;15.85;5.55;;;14.00;99.90;;;;;;4976944;28;20106;-68
2022/09/08 13:00:14;;;;;;;24.02;6.63;;;14.00;99.90;;;;;;4976092;28;20110;-68
2022/09/08 13:03:22;;;;;;;20.55;7.63;;;13.90;99.90;;;;;;4976577;28;20073;-69
2022/09/08 13:06:06;;;;;;;16.38;5.90;;;13.90;99.90;;;;;;4976495;28;20058;-68
2022/09/08 13:08:37;;;;;;;14.30;5.70;;;13.90;99.90;;;;;;4976975;28;20110;-68
2022/09/08 13:11:10;;;;;;;18.27;5.97;;;13.90;99.90;;;;;;4976260;28;20041;-68
2022/09/08 13:13:43;;;;;;;18.48;6.47;;;14.00;99.90;;;;;;4976404;28;20023;-68
2022/09/08 13:16:15;;;;;;;18.23;5.93;;;14.00;99.90;;;;;;4976586;28;20537;-68
2022/09/08 13:19:23;;;;;;;20.08;5.88;;;14.00;99.90;;;;;;4975808;28;20388;-69
2022/09/08 13:22:07;;;;;;;23.05;6.70;;;14.00;99.90;;;;;;4976270;28;20031;-68
2022/09/08 13:24:46;;;;;;;22.85;6.72;;;14.00;99.90;;;;;;4976704;28;20352;-68